Time;durP1;ratioP1;P1;durP2;ratioP2;P2;SDS_P1;SDS_P2;PMS_P1;PMS_P2;Temp;Humidity;BMP_temperature;BMP_pressure;BME280_temperature;BME280_humidity;BME280_pressure;Samples;Min_cycle;Max_cycle;Signal;HPM_P1;HPM_P2
2021/06/10 00:01:50;;;;;;;7.88;4.93;;;17.70;99.90;;;;;;4939125;29;20312;-93
2021/06/10 00:04:15;;;;;;;5.72;5.15;;;17.70;99.90;;;;;;4938358;29;20177;-90
2021/06/10 00:06:41;;;;;;;6.13;5.53;;;17.60;99.90;;;;;;4955807;29;20232;-91
2021/06/10 00:09:07;;;;;;;6.25;5.60;;;17.60;99.90;;;;;;4959237;28;20279;-93
2021/06/10 00:11:33;;;;;;;6.32;5.75;;;17.70;99.90;;;;;;4943163;29;20189;-91
2021/06/10 00:13:58;;;;;;;6.40;5.85;;;17.50;99.90;;;;;;4960031;29;20176;-90
2021/06/10 00:16:24;;;;;;;6.00;5.40;;;17.50;99.90;;;;;;4942658;29;20187;-93
2021/06/10 00:18:51;;;;;;;7.47;5.65;;;17.60;99.90;;;;;;4942405;29;20181;-90
2021/06/10 00:21:18;;;;;;;7.03;5.70;;;17.70;99.90;;;;;;4942481;29;20170;-91
2021/06/10 00:23:44;;;;;;;6.53;5.65;;;17.70;99.90;;;;;;4943001;29;20222;-88
2021/06/10 00:26:09;;;;;;;6.43;5.55;;;17.60;99.90;;;;;;4942527;29;20268;-93
2021/06/10 00:28:35;;;;;;;5.88;5.38;;;17.50;99.90;;;;;;4959451;29;20557;-91
2021/06/10 00:31:03;;;;;;;5.90;5.30;;;17.60;99.90;;;;;;4942543;29;20209;-95
2021/06/10 00:33:29;;;;;;;8.23;5.95;;;17.40;99.90;;;;;;4942396;29;20565;-96
2021/06/10 00:35:54;;;;;;;8.10;5.90;;;17.50;99.90;;;;;;4942016;29;20188;-91
2021/06/10 00:38:20;;;;;;;13.73;6.10;;;17.40;99.90;;;;;;4942432;29;20306;-93
2021/06/10 00:40:46;;;;;;;6.57;5.93;;;17.20;99.90;;;;;;4942397;29;20628;-95
2021/06/10 00:43:12;;;;;;;7.28;6.57;;;17.10;99.90;;;;;;4941972;29;20188;-91
2021/06/10 00:45:38;;;;;;;10.02;6.45;;;17.10;99.90;;;;;;4958627;29;20188;-87
2021/06/10 00:48:04;;;;;;;9.52;6.65;;;17.20;99.90;;;;;;4941861;29;20185;-87
2021/06/10 00:50:43;;;;;;;7.22;5.88;;;17.10;99.90;;;;;;4941862;29;20217;-87
2021/06/10 00:53:21;;;;;;;7.13;6.43;;;17.20;99.90;;;;;;4942110;29;20514;-88
2021/06/10 00:55:54;;;;;;;9.20;5.80;;;17.20;99.90;;;;;;4957685;29;20177;-88
2021/06/10 00:58:24;;;;;;;7.18;6.05;;;17.10;99.90;;;;;;4941839;29;20232;-88
2021/06/10 01:00:54;;;;;;;8.85;6.15;;;17.10;99.90;;;;;;4941335;29;20180;-88
2021/06/10 01:03:21;;;;;;;7.70;6.80;;;17.10;99.90;;;;;;4941821;29;20272;-87
2021/06/10 01:05:55;;;;;;;8.98;6.47;;;17.10;99.90;;;;;;4958467;29;20217;-87
2021/06/10 01:08:47;;;;;;;7.43;6.50;;;17.10;99.90;;;;;;4958830;29;20188;-89
2021/06/10 01:11:26;;;;;;;7.53;5.93;;;17.00;99.90;;;;;;4941431;29;20333;-88
2021/06/10 01:13:57;;;;;;;8.07;6.88;;;17.00;99.90;;;;;;4941992;29;20259;-87
2021/06/10 01:16:26;;;;;;;11.30;6.13;;;17.10;99.90;;;;;;4941592;29;20173;-88
2021/06/10 01:18:54;;;;;;;8.55;6.70;;;17.10;99.90;;;;;;4956525;28;20325;-87
2021/06/10 01:21:23;;;;;;;8.02;6.28;;;17.20;99.90;;;;;;4941334;29;20240;-87
2021/06/10 01:24:22;;;;;;;11.63;7.25;;;17.20;99.90;;;;;;4958306;29;20181;-87
2021/06/10 01:27:02;;;;;;;8.90;7.43;;;17.30;99.90;;;;;;4940967;29;20177;-87
2021/06/10 01:29:28;;;;;;;7.38;6.68;;;17.20;99.90;;;;;;4941180;29;20260;-87
2021/06/10 01:31:54;;;;;;;9.20;7.00;;;17.00;99.90;;;;;;4941003;29;20178;-87
2021/06/10 01:34:21;;;;;;;11.10;7.85;;;16.90;99.90;;;;;;4940992;29;20193;-87
2021/06/10 01:36:48;;;;;;;14.07;8.20;;;16.80;99.90;;;;;;4940864;29;20180;-87
2021/06/10 01:39:21;;;;;;;11.18;7.75;;;16.80;99.90;;;;;;4941130;29;20529;-88
2021/06/10 01:41:47;;;;;;;12.75;7.95;;;16.80;99.90;;;;;;4940813;29;20192;-87
2021/06/10 01:44:15;;;;;;;11.93;8.13;;;16.70;99.90;;;;;;4958146;29;20552;-89
2021/06/10 01:46:41;;;;;;;7.78;7.00;;;16.70;99.90;;;;;;4956567;29;20519;-87
2021/06/10 01:49:11;;;;;;;9.85;7.32;;;16.70;99.90;;;;;;4940690;29;20201;-86
2021/06/10 01:51:37;;;;;;;13.00;7.20;;;16.70;99.90;;;;;;4940976;29;20182;-90
2021/06/10 01:54:05;;;;;;;8.85;6.20;;;16.70;99.90;;;;;;4940825;29;20181;-90
2021/06/10 01:56:32;;;;;;;10.73;6.82;;;16.70;99.90;;;;;;4956624;29;20177;-88
2021/06/10 01:58:59;;;;;;;14.38;7.20;;;16.60;99.90;;;;;;4940253;29;20184;-90
2021/06/10 02:01:27;;;;;;;14.70;7.53;;;16.50;99.90;;;;;;4940530;29;20178;-87
2021/06/10 02:03:55;;;;;;;13.13;7.47;;;16.50;99.90;;;;;;4940626;29;20244;-88
2021/06/10 02:06:22;;;;;;;8.75;6.72;;;16.60;99.90;;;;;;4940425;29;20252;-88
2021/06/10 02:08:50;;;;;;;10.02;6.15;;;16.60;99.90;;;;;;4940036;29;20670;-87
2021/06/10 02:11:16;;;;;;;11.07;7.20;;;16.60;99.90;;;;;;4940783;29;20187;-87
2021/06/10 02:13:43;;;;;;;11.15;7.05;;;16.60;99.90;;;;;;4940328;29;20186;-88
2021/06/10 02:16:10;;;;;;;14.18;6.63;;;16.70;99.90;;;;;;4940149;29;20185;-87
2021/06/10 02:18:39;;;;;;;12.73;6.13;;;16.60;99.90;;;;;;4940231;29;20212;-89
2021/06/10 02:21:09;;;;;;;7.05;6.35;;;16.50;99.90;;;;;;4940146;29;20268;-87
2021/06/10 02:23:37;;;;;;;11.60;7.13;;;16.40;99.90;;;;;;4939811;29;20269;-87
2021/06/10 02:26:03;;;;;;;12.23;7.15;;;16.40;99.90;;;;;;4939603;29;20189;-88
2021/06/10 02:28:29;;;;;;;7.50;6.53;;;16.30;99.90;;;;;;4955835;29;20675;-88
2021/06/10 02:30:55;;;;;;;12.55;6.65;;;16.30;99.90;;;;;;4939971;29;20189;-87
2021/06/10 02:33:22;;;;;;;11.43;6.68;;;16.20;99.90;;;;;;4954777;28;20203;-88
2021/06/10 02:35:47;;;;;;;8.93;5.72;;;16.20;99.90;;;;;;4959166;28;20192;-87
2021/06/10 02:38:17;;;;;;;10.13;6.03;;;16.20;99.90;;;;;;4959034;28;20345;-90
2021/06/10 02:40:48;;;;;;;12.38;6.90;;;16.10;99.90;;;;;;4976203;28;20173;-93
2021/06/10 02:43:14;;;;;;;9.50;6.07;;;16.10;99.90;;;;;;4975661;28;20169;-92
2021/06/10 02:45:42;;;;;;;15.00;6.75;;;16.00;99.90;;;;;;4957933;28;20176;-88
2021/06/10 02:48:09;;;;;;;10.05;6.38;;;16.00;99.90;;;;;;4958992;28;20254;-88
2021/06/10 02:50:38;;;;;;;8.68;6.28;;;16.10;99.90;;;;;;4958842;28;20223;-87
2021/06/10 02:53:06;;;;;;;11.55;6.68;;;16.00;99.90;;;;;;4958807;28;20246;-88
2021/06/10 02:55:33;;;;;;;11.20;6.95;;;16.10;99.90;;;;;;4976064;28;20203;-87
2021/06/10 02:57:59;;;;;;;8.07;6.68;;;16.00;99.90;;;;;;4958897;28;20690;-88
2021/06/10 03:00:31;;;;;;;12.10;6.47;;;15.90;99.90;;;;;;4958566;28;20272;-88
2021/06/10 03:02:58;;;;;;;8.95;5.80;;;16.00;99.90;;;;;;4958773;28;20184;-88
2021/06/10 03:05:26;;;;;;;13.38;6.15;;;15.90;99.90;;;;;;4958393;28;20228;-87
2021/06/10 03:07:52;;;;;;;8.05;5.82;;;15.80;99.90;;;;;;4958756;28;20231;-87
2021/06/10 03:10:22;;;;;;;9.52;6.28;;;15.70;99.90;;;;;;4958376;28;20208;-87
2021/06/10 03:12:49;;;;;;;13.48;6.22;;;15.70;99.90;;;;;;4958355;28;20204;-87
2021/06/10 03:15:15;;;;;;;11.27;6.55;;;15.80;99.90;;;;;;4958438;28;20188;-88
2021/06/10 03:17:41;;;;;;;14.00;6.50;;;15.90;99.90;;;;;;4958403;28;20180;-88
2021/06/10 03:20:08;;;;;;;11.65;5.85;;;16.00;99.90;;;;;;4958554;28;20176;-87
2021/06/10 03:22:35;;;;;;;8.07;6.18;;;16.00;99.90;;;;;;4958347;28;20176;-88
2021/06/10 03:25:03;;;;;;;8.95;6.38;;;15.90;99.90;;;;;;4957822;28;20272;-87
2021/06/10 03:27:31;;;;;;;10.90;6.35;;;15.90;99.90;;;;;;4958419;28;20494;-94
2021/06/10 03:29:57;;;;;;;13.02;6.68;;;16.10;99.90;;;;;;4975868;28;20233;-96
2021/06/10 03:32:25;;;;;;;10.65;6.15;;;16.00;99.90;;;;;;4975423;28;20223;-92
2021/06/10 03:34:51;;;;;;;10.90;6.18;;;16.00;99.90;;;;;;4957678;28;20184;-94
2021/06/10 03:37:17;;;;;;;8.60;6.35;;;16.10;99.90;;;;;;4975575;28;20612;-88
2021/06/10 03:39:45;;;;;;;10.23;7.18;;;16.10;99.90;;;;;;4958485;28;20195;-89
2021/06/10 03:42:12;;;;;;;15.00;7.18;;;16.10;99.90;;;;;;4958073;28;20172;-89
2021/06/10 03:44:38;;;;;;;9.38;7.20;;;16.10;99.90;;;;;;4975922;28;20176;-87
2021/06/10 03:47:05;;;;;;;12.73;6.68;;;16.00;99.90;;;;;;4958234;28;20184;-88
2021/06/10 03:49:32;;;;;;;12.02;6.68;;;16.00;99.90;;;;;;4958248;28;20549;-86
2021/06/10 03:51:59;;;;;;;13.82;7.13;;;16.00;99.90;;;;;;4957906;28;20183;-87
2021/06/10 03:54:25;;;;;;;11.00;7.50;;;16.10;99.90;;;;;;4958145;28;20238;-87
2021/06/10 03:56:50;;;;;;;10.05;7.35;;;16.00;99.90;;;;;;4958023;28;20287;-88
2021/06/10 03:59:16;;;;;;;10.15;7.43;;;15.90;99.90;;;;;;4957927;28;20180;-87
2021/06/10 04:01:42;;;;;;;11.95;7.43;;;15.90;99.90;;;;;;4957979;28;20185;-87
2021/06/10 04:04:08;;;;;;;13.50;7.15;;;16.00;99.90;;;;;;4957609;28;20176;-87
2021/06/10 04:06:37;;;;;;;8.80;7.25;;;16.00;99.90;;;;;;4957442;28;20236;-88
2021/06/10 04:09:05;;;;;;;12.23;7.88;;;16.00;99.90;;;;;;4957895;28;20204;-88
2021/06/10 04:11:30;;;;;;;8.85;7.18;;;15.90;99.90;;;;;;4957550;28;20251;-87
2021/06/10 04:13:56;;;;;;;11.70;7.57;;;15.90;99.90;;;;;;4957296;28;20608;-87
2021/06/10 04:16:22;;;;;;;8.52;7.72;;;16.00;99.90;;;;;;4957061;28;20188;-87
2021/06/10 04:18:48;;;;;;;10.68;7.43;;;16.10;99.90;;;;;;4956094;28;20259;-88
2021/06/10 04:21:14;;;;;;;15.07;7.68;;;16.10;99.90;;;;;;4956602;28;20176;-87
2021/06/10 04:23:40;;;;;;;11.05;7.60;;;16.10;99.90;;;;;;4957488;28;20187;-88
2021/06/10 04:26:05;;;;;;;10.40;7.25;;;16.20;99.90;;;;;;4956929;28;20189;-87
2021/06/10 04:28:31;;;;;;;10.63;8.30;;;16.20;99.90;;;;;;4957611;28;20288;-87
2021/06/10 04:30:58;;;;;;;12.88;8.48;;;16.30;99.90;;;;;;4957659;28;20211;-87
2021/06/10 04:33:23;;;;;;;12.80;7.85;;;16.40;99.90;;;;;;4957516;28;20188;-88
2021/06/10 04:35:49;;;;;;;9.63;8.63;;;16.30;99.90;;;;;;4957679;28;20195;-87
2021/06/10 04:38:17;;;;;;;12.30;9.13;;;16.40;99.90;;;;;;4957547;28;20188;-87
2021/06/10 04:40:42;;;;;;;12.10;9.13;;;16.50;99.90;;;;;;4956742;28;20263;-88
2021/06/10 04:43:08;;;;;;;10.15;9.00;;;16.60;99.90;;;;;;4956353;28;20208;-87
2021/06/10 04:45:34;;;;;;;13.05;8.57;;;16.60;99.90;;;;;;4956381;28;20180;-87
2021/06/10 04:48:00;;;;;;;11.30;9.68;;;16.80;99.90;;;;;;4956810;28;20271;-87
2021/06/10 04:50:27;;;;;;;10.65;9.48;;;16.90;99.90;;;;;;4957240;28;20305;-88
2021/06/10 04:52:54;;;;;;;11.10;9.30;;;17.10;99.90;;;;;;4957561;28;20181;-87
2021/06/10 04:55:20;;;;;;;11.52;9.30;;;17.20;99.90;;;;;;4959327;28;20185;-88
2021/06/10 04:57:47;;;;;;;10.70;9.38;;;17.20;99.90;;;;;;4960902;28;20501;-88
2021/06/10 05:00:13;;;;;;;12.13;10.13;;;17.30;99.90;;;;;;4961035;28;20173;-88
2021/06/10 05:02:39;;;;;;;10.65;9.65;;;17.40;99.90;;;;;;4960870;28;20180;-86
2021/06/10 05:05:06;;;;;;;13.25;10.55;;;17.40;99.90;;;;;;4977716;28;20242;-87
2021/06/10 05:07:32;;;;;;;13.07;10.90;;;17.40;99.90;;;;;;4960226;28;20177;-88
2021/06/10 05:09:58;;;;;;;13.70;11.10;;;17.50;99.90;;;;;;4960559;28;20208;-88
2021/06/10 05:12:24;;;;;;;13.23;9.02;;;17.60;99.90;;;;;;4960600;28;20226;-88
2021/06/10 05:14:50;;;;;;;11.00;9.85;;;17.70;99.90;;;;;;4944442;29;20201;-87
2021/06/10 05:17:16;;;;;;;12.18;10.50;;;17.80;99.90;;;;;;4941264;29;20213;-88
2021/06/10 05:19:42;;;;;;;15.27;13.00;;;17.90;99.90;;;;;;4961766;28;20600;-87
2021/06/10 05:22:08;;;;;;;14.30;12.80;;;17.90;99.90;;;;;;4959807;28;20187;-88
2021/06/10 05:24:34;;;;;;;15.18;12.88;;;18.00;99.90;;;;;;4959522;28;20564;-87
2021/06/10 05:26:59;;;;;;;15.23;12.05;;;18.00;99.90;;;;;;4959500;28;20181;-89
2021/06/10 05:29:26;;;;;;;16.23;12.10;;;18.10;99.90;;;;;;4960124;28;20554;-88
2021/06/10 05:31:52;;;;;;;14.60;12.00;;;18.10;99.90;;;;;;4960689;28;20169;-88
2021/06/10 05:34:18;;;;;;;14.65;11.85;;;18.10;99.90;;;;;;4960322;28;20177;-90
2021/06/10 05:36:43;;;;;;;14.43;11.73;;;18.10;99.90;;;;;;4977354;28;20342;-91
2021/06/10 05:39:09;;;;;;;16.00;12.23;;;18.10;99.90;;;;;;4951096;28;20177;-89
2021/06/10 05:41:35;;;;;;;15.88;14.23;;;18.20;99.90;;;;;;4960212;28;20173;-88
2021/06/10 05:44:02;;;;;;;15.45;13.77;;;18.20;99.90;;;;;;4948554;29;20177;-89
2021/06/10 05:46:28;;;;;;;19.70;17.27;;;18.20;99.90;;;;;;4942848;28;20181;-88
2021/06/10 05:48:53;;;;;;;18.73;15.02;;;18.30;99.90;;;;;;4949084;28;20536;-91
2021/06/10 05:51:20;;;;;;;17.35;13.65;;;18.30;99.90;;;;;;4952683;28;20236;-88
2021/06/10 05:53:46;;;;;;;20.38;14.38;;;18.40;99.90;;;;;;4977388;28;20204;-88
2021/06/10 05:56:12;;;;;;;16.45;13.32;;;18.40;99.90;;;;;;4948131;29;20194;-88
2021/06/10 05:58:37;;;;;;;20.58;16.48;;;18.50;99.90;;;;;;4940473;29;20177;-89
2021/06/10 06:01:03;;;;;;;20.45;16.85;;;18.60;99.90;;;;;;4940636;29;20593;-88
2021/06/10 06:03:32;;;;;;;15.93;13.85;;;18.60;99.90;;;;;;4940586;29;20185;-88
2021/06/10 06:05:58;;;;;;;16.02;14.07;;;18.70;99.90;;;;;;4940083;29;20233;-88
2021/06/10 06:08:24;;;;;;;15.30;13.48;;;18.70;99.90;;;;;;4940401;29;20236;-94
2021/06/10 06:10:52;;;;;;;16.40;14.70;;;18.80;99.90;;;;;;4940119;29;20209;-95
2021/06/10 06:13:31;;;;;;;19.10;15.32;;;18.90;99.90;;;;;;4940376;29;20582;-96
2021/06/10 06:16:05;;;;;;;16.90;14.40;;;19.00;99.90;;;;;;4940196;29;20177;-95
2021/06/10 06:18:31;;;;;;;21.63;17.40;;;19.10;99.90;;;;;;4957521;29;20197;-96
2021/06/10 06:20:57;;;;;;;18.13;14.38;;;19.10;99.90;;;;;;4957453;29;20572;-95
2021/06/10 06:23:22;;;;;;;17.05;15.23;;;19.10;99.90;;;;;;4940430;29;20185;-88
2021/06/10 06:25:48;;;;;;;18.40;14.73;;;19.20;99.90;;;;;;4957602;29;20173;-88
2021/06/10 06:28:14;;;;;;;17.73;14.57;;;19.20;99.90;;;;;;4957467;29;20194;-88
2021/06/10 06:30:39;;;;;;;18.35;16.38;;;19.30;99.90;;;;;;4940302;29;20213;-88
2021/06/10 06:33:05;;;;;;;20.08;17.75;;;19.40;99.90;;;;;;4940377;29;20181;-88
2021/06/10 06:35:31;;;;;;;16.83;15.05;;;19.40;99.90;;;;;;4957246;29;20244;-88
2021/06/10 06:37:56;;;;;;;17.58;15.77;;;19.50;99.90;;;;;;4939915;29;20189;-88
2021/06/10 06:40:26;;;;;;;14.95;13.07;;;19.60;99.90;;;;;;4939906;29;20187;-88
2021/06/10 06:42:52;;;;;;;16.20;14.50;;;19.70;99.90;;;;;;4939806;29;20253;-88
2021/06/10 06:45:17;;;;;;;17.10;13.57;;;19.80;99.90;;;;;;4957143;29;20177;-88
2021/06/10 06:47:43;;;;;;;17.98;13.98;;;20.00;99.90;;;;;;4939901;29;20177;-88
2021/06/10 06:50:11;;;;;;;14.40;12.68;;;20.10;99.90;;;;;;4939755;29;20267;-88
2021/06/10 06:52:36;;;;;;;15.43;13.60;;;20.30;99.90;;;;;;4939489;29;20169;-96
2021/06/10 06:55:02;;;;;;;18.52;12.60;;;20.40;99.90;;;;;;4939797;29;20239;-95
2021/06/10 06:57:29;;;;;;;15.05;13.45;;;20.60;99.90;;;;;;4961595;29;20172;-96
2021/06/10 06:59:55;;;;;;;18.38;13.55;;;20.70;99.90;;;;;;4940168;29;20613;-91
2021/06/10 07:02:21;;;;;;;14.10;12.70;;;20.80;99.90;;;;;;4940764;29;20267;-95
2021/06/10 07:04:46;;;;;;;15.45;12.80;;;20.90;99.90;;;;;;4941241;29;20185;-93
2021/06/10 07:07:12;;;;;;;19.13;12.80;;;21.00;99.90;;;;;;4957106;29;20177;-90
2021/06/10 07:09:38;;;;;;;15.20;13.00;;;21.10;99.90;;;;;;4957158;29;20296;-93
2021/06/10 07:12:04;;;;;;;14.05;12.50;;;21.30;99.90;;;;;;4927868;28;20892;-90
2021/06/10 07:14:30;;;;;;;17.60;14.00;;;21.40;99.90;;;;;;4970988;28;20192;-93
2021/06/10 07:16:56;;;;;;;14.65;13.20;;;21.50;99.90;;;;;;4932702;28;20225;-92
2021/06/10 07:19:21;;;;;;;16.80;13.30;;;21.50;99.90;;;;;;4935690;28;20688;-91
2021/06/10 07:21:49;;;;;;;16.02;12.23;;;21.60;99.90;;;;;;4925868;28;20359;-90
2021/06/10 07:24:15;;;;;;;14.98;11.77;;;21.70;99.90;;;;;;4975140;28;20191;-93
2021/06/10 07:26:43;;;;;;;13.00;10.95;;;21.80;99.90;;;;;;4952820;28;20198;-94
2021/06/10 07:29:10;;;;;;;15.60;11.70;;;21.90;99.90;;;;;;4934038;28;20570;-94
2021/06/10 07:31:35;;;;;;;12.82;11.60;;;22.00;99.90;;;;;;4958096;28;20199;-93
2021/06/10 07:34:04;;;;;;;15.10;11.13;;;22.10;99.90;;;;;;4934203;28;20224;-90
2021/06/10 07:36:31;;;;;;;20.58;18.58;;;22.20;99.90;;;;;;4953152;28;20221;-89
2021/06/10 07:38:56;;;;;;;13.27;10.65;;;22.30;99.90;;;;;;4933278;28;20230;-89
2021/06/10 07:41:22;;;;;;;9.43;7.93;;;22.40;99.90;;;;;;4954537;28;20497;-89
2021/06/10 07:43:48;;;;;;;9.38;6.47;;;22.50;99.90;;;;;;4937226;28;20229;-89
2021/06/10 07:46:14;;;;;;;9.13;6.97;;;22.50;99.90;;;;;;4955454;28;20192;-94
2021/06/10 07:48:39;;;;;;;10.20;8.07;;;22.60;99.90;;;;;;4938646;28;20221;-94
2021/06/10 07:51:06;;;;;;;9.77;7.95;;;22.60;99.90;;;;;;4958993;28;20192;-94
2021/06/10 07:53:37;;;;;;;11.38;7.60;;;22.60;99.90;;;;;;4947376;28;20228;-93
2021/06/10 07:56:04;;;;;;;8.93;7.85;;;22.60;99.90;;;;;;4957764;28;20200;-95
2021/06/10 07:58:31;;;;;;;8.95;7.90;;;22.60;99.90;;;;;;4947359;28;20232;-90
2021/06/10 08:00:57;;;;;;;10.55;9.45;;;22.70;99.90;;;;;;4956409;28;20227;-92
2021/06/10 08:03:23;;;;;;;10.25;9.10;;;22.80;99.90;;;;;;4947987;28;20700;-93
2021/06/10 08:05:49;;;;;;;9.45;8.45;;;22.90;99.90;;;;;;4974301;28;20323;-94
2021/06/10 08:08:15;;;;;;;11.85;9.32;;;23.00;99.90;;;;;;4943149;28;20457;-96
2021/06/10 08:10:46;;;;;;;10.35;9.30;;;23.00;99.90;;;;;;4956818;28;20231;-96
2021/06/10 08:13:14;;;;;;;10.48;8.60;;;23.10;99.90;;;;;;4948495;28;20220;-91
2021/06/10 08:15:39;;;;;;;12.32;8.45;;;23.20;99.90;;;;;;4952254;28;20192;-96
2021/06/10 08:18:06;;;;;;;9.85;8.82;;;23.30;99.90;;;;;;4978353;28;20607;-90
2021/06/10 08:20:32;;;;;;;10.70;8.20;;;23.50;99.90;;;;;;4986727;28;20180;-89
2021/06/10 08:22:59;;;;;;;9.45;8.55;;;23.60;99.90;;;;;;4965319;28;20180;-89
2021/06/10 08:25:29;;;;;;;9.50;8.45;;;23.70;99.90;;;;;;4967608;28;20169;-92
2021/06/10 08:27:56;;;;;;;8.25;7.45;;;23.70;99.90;;;;;;5005582;23;20240;-91
2021/06/10 08:30:22;;;;;;;9.68;7.22;;;23.80;99.90;;;;;;4990075;28;20228;-96
2021/06/10 08:32:54;;;;;;;8.88;7.85;;;23.80;99.90;;;;;;5001425;23;20171;-92
2021/06/10 08:35:20;;;;;;;11.38;9.65;;;23.90;99.90;;;;;;4989845;28;20259;-96
2021/06/10 08:37:46;;;;;;;9.80;7.85;;;23.90;99.90;;;;;;5005127;28;20208;-96
2021/06/10 08:40:19;;;;;;;8.13;7.00;;;23.90;99.90;;;;;;5004402;28;20215;-96
2021/06/10 08:42:47;;;;;;;7.35;6.65;;;24.00;99.90;;;;;;4983059;28;20179;-96
2021/06/10 08:45:16;;;;;;;8.60;6.05;;;23.90;99.90;;;;;;4991853;28;20191;-96
2021/06/10 08:47:44;;;;;;;7.88;6.20;;;23.90;99.90;;;;;;4987288;28;20246;-96
2021/06/10 08:50:23;;;;;;;8.55;6.53;;;23.90;99.90;;;;;;4991982;28;20195;-96
2021/06/10 08:52:50;;;;;;;7.00;6.30;;;24.00;99.90;;;;;;4987410;28;20164;-96
2021/06/10 08:55:16;;;;;;;7.97;6.10;;;24.10;99.90;;;;;;4986062;28;20271;-96
2021/06/10 08:57:42;;;;;;;6.57;5.05;;;24.20;99.90;;;;;;4986623;28;20589;-96
2021/06/10 09:00:18;;;;;;;5.68;3.90;;;24.40;99.90;;;;;;4989653;28;20266;-96
2021/06/10 09:02:54;;;;;;;6.50;5.35;;;24.40;99.70;;;;;;5004347;28;20175;-96
2021/06/10 09:05:21;;;;;;;7.47;5.18;;;24.40;99.90;;;;;;4990172;28;20168;-96
2021/06/10 09:07:58;;;;;;;9.10;5.13;;;24.50;99.90;;;;;;5007374;28;20192;-96
2021/06/10 09:10:29;;;;;;;6.70;5.55;;;24.50;99.60;;;;;;4993386;28;20211;-95
2021/06/10 09:13:03;;;;;;;6.30;4.63;;;24.50;98.60;;;;;;5000335;23;20330;-96
2021/06/10 09:15:31;;;;;;;6.72;5.03;;;24.60;99.50;;;;;;5002369;28;20175;-96
2021/06/10 09:18:01;;;;;;;5.28;4.60;;;24.70;99.20;;;;;;5007697;28;20630;-93
2021/06/10 09:20:28;;;;;;;6.57;4.45;;;24.70;98.60;;;;;;5003247;28;20212;-96
2021/06/10 09:23:15;;;;;;;5.82;4.75;;;24.80;99.00;;;;;;5001609;28;20176;-93
2021/06/10 09:25:42;;;;;;;6.88;4.97;;;24.80;98.70;;;;;;5003135;28;20180;-96
2021/06/10 09:28:08;;;;;;;5.20;4.70;;;24.80;98.50;;;;;;5003150;28;20266;-91
2021/06/10 09:30:53;;;;;;;7.10;4.90;;;24.80;98.60;;;;;;5003991;28;20208;-90
2021/06/10 09:33:25;;;;;;;6.78;5.45;;;25.00;98.50;;;;;;5005301;28;20208;-89
2021/06/10 09:35:51;;;;;;;8.80;5.55;;;25.00;97.80;;;;;;5003113;28;20279;-91
2021/06/10 09:38:21;;;;;;;7.18;5.45;;;25.00;97.30;;;;;;4999986;28;20188;-94
2021/06/10 09:40:53;;;;;;;6.15;5.55;;;25.00;97.90;;;;;;5003151;28;20615;-89
2021/06/10 09:43:20;;;;;;;7.28;5.40;;;25.00;97.90;;;;;;5007456;28;20164;-91
2021/06/10 09:45:54;;;;;;;8.05;5.60;;;25.10;98.90;;;;;;5009224;28;20184;-91
2021/06/10 09:48:32;;;;;;;6.95;6.15;;;25.10;98.90;;;;;;5005706;28;20176;-91
2021/06/10 09:50:59;;;;;;;6.30;5.70;;;25.20;99.20;;;;;;4998981;28;20733;-89
2021/06/10 09:53:28;;;;;;;7.53;6.43;;;25.20;98.90;;;;;;4997239;28;20172;-91
2021/06/10 09:55:58;;;;;;;7.63;6.80;;;25.20;99.00;;;;;;4996764;28;20178;-90
2021/06/10 09:58:25;;;;;;;10.80;7.47;;;25.20;99.00;;;;;;4996011;28;20199;-96
2021/06/10 10:00:57;;;;;;;8.80;7.13;;;25.40;99.10;;;;;;4995993;28;20180;-94
2021/06/10 10:03:23;;;;;;;8.48;6.50;;;25.40;98.20;;;;;;4995916;28;20514;-95
2021/06/10 10:05:49;;;;;;;7.90;7.10;;;25.60;98.30;;;;;;4995195;28;20176;-95
2021/06/10 10:08:15;;;;;;;8.30;7.45;;;25.70;98.60;;;;;;4995564;28;20494;-95
2021/06/10 10:10:42;;;;;;;8.32;7.00;;;25.90;97.90;;;;;;4995241;28;20237;-94
2021/06/10 10:13:10;;;;;;;8.02;7.22;;;25.90;97.70;;;;;;4996602;28;20320;-95
2021/06/10 10:15:38;;;;;;;7.78;6.88;;;26.10;96.90;;;;;;4995679;28;20237;-95
2021/06/10 10:18:05;;;;;;;9.63;7.80;;;26.10;97.10;;;;;;4996784;28;20176;-95
2021/06/10 10:20:31;;;;;;;8.57;7.68;;;26.20;97.90;;;;;;4997049;28;20623;-94
2021/06/10 10:22:57;;;;;;;10.90;7.63;;;26.20;97.30;;;;;;4995411;28;20262;-93
2021/06/10 10:25:23;;;;;;;9.93;7.55;;;26.20;97.50;;;;;;4995182;28;20188;-95
2021/06/10 10:27:49;;;;;;;8.82;7.03;;;26.00;96.60;;;;;;4995410;28;20562;-93
2021/06/10 10:30:16;;;;;;;10.02;6.72;;;25.80;97.70;;;;;;4995282;28;20211;-90
2021/06/10 10:32:45;;;;;;;13.93;9.80;;;25.50;98.90;;;;;;4995275;28;20616;-90
2021/06/10 10:35:33;;;;;;;10.13;9.13;;;25.20;98.20;;;;;;4994970;28;20596;-90
2021/06/10 10:38:10;;;;;;;11.68;9.40;;;24.90;98.90;;;;;;4978981;28;20259;-90
2021/06/10 10:40:40;;;;;;;10.95;8.63;;;24.80;99.00;;;;;;4996300;28;20635;-89
2021/06/10 10:43:11;;;;;;;13.10;9.48;;;24.50;99.20;;;;;;4995193;28;20183;-89
2021/06/10 10:45:37;;;;;;;12.95;9.57;;;24.30;99.20;;;;;;4994898;28;20272;-88
2021/06/10 10:48:06;;;;;;;11.57;9.77;;;24.20;99.90;;;;;;4995164;28;20593;-91
2021/06/10 10:50:36;;;;;;;12.13;10.85;;;24.00;99.80;;;;;;4995835;28;20266;-87
2021/06/10 10:53:02;;;;;;;14.02;11.68;;;23.90;99.90;;;;;;4978726;28;20215;-88
2021/06/10 10:55:30;;;;;;;14.55;11.82;;;23.70;99.50;;;;;;4978600;28;20270;-88
2021/06/10 10:58:07;;;;;;;12.93;10.85;;;23.60;99.90;;;;;;4996095;28;20730;-96
2021/06/10 11:00:53;;;;;;;12.65;11.32;;;23.40;99.90;;;;;;4978616;28;20211;-93
2021/06/10 11:03:32;;;;;;;16.08;12.15;;;23.20;99.90;;;;;;4978954;28;20176;-90
2021/06/10 11:06:18;;;;;;;12.43;11.13;;;23.00;99.90;;;;;;4980448;28;20194;-93
2021/06/10 11:09:11;;;;;;;12.27;11.10;;;22.90;99.90;;;;;;4978463;28;20207;-93
2021/06/10 11:11:51;;;;;;;13.68;11.70;;;22.80;99.90;;;;;;4978088;28;20192;-92
2021/06/10 11:14:35;;;;;;;13.02;10.70;;;22.70;99.90;;;;;;4995848;28;20176;-92
2021/06/10 11:17:28;;;;;;;13.43;12.13;;;22.70;99.90;;;;;;4995428;28;20168;-95
2021/06/10 11:20:02;;;;;;;12.77;11.48;;;22.70;99.90;;;;;;4978423;28;20638;-94
2021/06/10 11:22:38;;;;;;;12.30;10.73;;;22.70;99.90;;;;;;4978482;28;20184;-93
2021/06/10 11:25:07;;;;;;;11.73;10.73;;;22.70;99.90;;;;;;4978193;28;20282;-93
2021/06/10 11:27:47;;;;;;;14.13;12.55;;;22.70;99.90;;;;;;4978352;28;20192;-93
2021/06/10 11:30:18;;;;;;;14.63;13.13;;;22.80;99.90;;;;;;4995331;28;20203;-95
2021/06/10 11:32:57;;;;;;;13.25;11.65;;;22.80;99.90;;;;;;4978107;28;20526;-93
2021/06/10 11:35:34;;;;;;;14.13;12.73;;;22.90;99.90;;;;;;4961911;28;20214;-92
2021/06/10 11:38:11;;;;;;;16.67;12.50;;;23.00;99.90;;;;;;4978094;28;20262;-93
2021/06/10 11:40:37;;;;;;;15.32;13.75;;;23.30;99.90;;;;;;4978090;28;20183;-93
2021/06/10 11:43:08;;;;;;;18.65;15.50;;;23.60;99.90;;;;;;4978037;28;20176;-94
2021/06/10 11:45:35;;;;;;;13.88;11.30;;;23.80;99.90;;;;;;4978381;28;20187;-96
2021/06/10 11:48:00;;;;;;;15.07;13.48;;;23.90;99.90;;;;;;4978149;28;20171;-94
2021/06/10 11:50:32;;;;;;;14.68;13.18;;;24.00;99.90;;;;;;4978011;28;20211;-90
2021/06/10 11:53:06;;;;;;;20.75;15.57;;;24.00;99.90;;;;;;4978243;28;20187;-92
2021/06/10 11:55:33;;;;;;;15.27;13.48;;;24.00;99.70;;;;;;4978060;28;20180;-91
2021/06/10 11:58:05;;;;;;;14.57;12.82;;;24.10;99.10;;;;;;4978059;28;20215;-91
2021/06/10 12:00:34;;;;;;;12.20;10.88;;;24.20;99.90;;;;;;4995307;28;20179;-91
2021/06/10 12:03:02;;;;;;;12.15;10.95;;;24.30;99.90;;;;;;4977849;28;20182;-92
2021/06/10 12:05:31;;;;;;;13.75;10.00;;;24.40;99.90;;;;;;4981591;28;20190;-91
2021/06/10 12:08:18;;;;;;;11.68;9.73;;;24.60;98.90;;;;;;4981820;28;20522;-91
2021/06/10 12:11:03;;;;;;;13.50;12.07;;;24.70;99.10;;;;;;4999565;28;20208;-91
2021/06/10 12:13:33;;;;;;;11.85;10.60;;;24.90;98.30;;;;;;4981710;28;20566;-92
2021/06/10 12:16:01;;;;;;;11.73;10.43;;;24.90;98.10;;;;;;4981518;28;20195;-93
2021/06/10 12:18:27;;;;;;;11.95;10.02;;;25.00;98.60;;;;;;4978429;28;20172;-92
2021/06/10 12:20:59;;;;;;;11.57;10.38;;;25.10;98.40;;;;;;4983622;28;20176;-92
2021/06/10 12:23:27;;;;;;;11.52;10.07;;;25.20;98.60;;;;;;4981742;28;20192;-93
2021/06/10 12:26:01;;;;;;;9.85;8.57;;;25.30;98.50;;;;;;4981395;28;20618;-95
2021/06/10 12:28:41;;;;;;;10.43;8.80;;;25.40;99.70;;;;;;4981391;28;20266;-94
2021/06/10 12:31:21;;;;;;;10.60;8.65;;;25.50;98.40;;;;;;4997883;28;20242;-96
2021/06/10 12:33:53;;;;;;;11.43;9.68;;;25.60;97.90;;;;;;4999321;28;20160;-92
2021/06/10 12:36:31;;;;;;;10.35;9.30;;;25.60;96.10;;;;;;4999194;28;20203;-93
2021/06/10 12:38:57;;;;;;;10.50;9.45;;;25.50;95.90;;;;;;4997771;28;20176;-89
2021/06/10 12:41:32;;;;;;;8.75;7.50;;;25.50;96.10;;;;;;4997570;28;20176;-96
2021/06/10 12:44:08;;;;;;;8.48;7.72;;;25.50;96.60;;;;;;4997951;28;20178;-95
2021/06/10 12:46:52;;;;;;;11.73;7.75;;;25.40;96.90;;;;;;4997431;28;20179;-94